sensor_id;sensor_type;location;lat;lon;timestamp;pressure;altitude;pressure_sealevel;temperature
75822;BMP180;64454;51.984;9.838;2023-09-19T00:00:00;99309.00;;;16.30
75822;BMP180;64454;51.984;9.838;2023-09-19T00:02:27;99309.00;;;16.30
75822;BMP180;64454;51.984;9.838;2023-09-19T00:04:55;99313.00;;;16.50
75822;BMP180;64454;51.984;9.838;2023-09-19T00:07:21;99320.00;;;16.70
75822;BMP180;64454;51.984;9.838;2023-09-19T00:09:49;99317.00;;;16.80
75822;BMP180;64454;51.984;9.838;2023-09-19T00:12:16;99323.00;;;16.80
75822;BMP180;64454;51.984;9.838;2023-09-19T00:14:43;99324.00;;;16.70
75822;BMP180;64454;51.984;9.838;2023-09-19T00:17:12;99325.00;;;16.80
75822;BMP180;64454;51.984;9.838;2023-09-19T00:19:38;99329.00;;;16.60
75822;BMP180;64454;51.984;9.838;2023-09-19T00:22:08;99344.00;;;16.70
75822;BMP180;64454;51.984;9.838;2023-09-19T00:24:35;99353.00;;;16.60
75822;BMP180;64454;51.984;9.838;2023-09-19T00:27:03;99342.00;;;16.80
75822;BMP180;64454;51.984;9.838;2023-09-19T00:29:31;99348.00;;;16.70
75822;BMP180;64454;51.984;9.838;2023-09-19T00:31:58;99356.00;;;16.90
75822;BMP180;64454;51.984;9.838;2023-09-19T00:34:27;99352.00;;;17.20
75822;BMP180;64454;51.984;9.838;2023-09-19T00:36:55;99352.00;;;16.90
75822;BMP180;64454;51.984;9.838;2023-09-19T00:39:22;99355.00;;;17.00
75822;BMP180;64454;51.984;9.838;2023-09-19T00:41:51;99360.00;;;17.00
75822;BMP180;64454;51.984;9.838;2023-09-19T00:44:20;99347.00;;;17.00
75822;BMP180;64454;51.984;9.838;2023-09-19T00:46:48;99350.00;;;17.00
75822;BMP180;64454;51.984;9.838;2023-09-19T00:49:19;99352.00;;;16.80
75822;BMP180;64454;51.984;9.838;2023-09-19T00:51:49;99348.00;;;16.90
75822;BMP180;64454;51.984;9.838;2023-09-19T00:54:19;99357.00;;;16.90
75822;BMP180;64454;51.984;9.838;2023-09-19T00:56:47;99357.00;;;17.00
75822;BMP180;64454;51.984;9.838;2023-09-19T00:59:18;99359.00;;;17.00
75822;BMP180;64454;51.984;9.838;2023-09-19T01:01:48;99370.00;;;17.20
75822;BMP180;64454;51.984;9.838;2023-09-19T01:04:21;99362.00;;;16.90
75822;BMP180;64454;51.984;9.838;2023-09-19T01:06:49;99364.00;;;16.80
75822;BMP180;64454;51.984;9.838;2023-09-19T01:09:20;99365.00;;;16.90
75822;BMP180;64454;51.984;9.838;2023-09-19T01:11:51;99368.00;;;16.80
75822;BMP180;64454;51.984;9.838;2023-09-19T01:14:30;99378.00;;;17.10
75822;BMP180;64454;51.984;9.838;2023-09-19T01:17:05;99377.00;;;17.00
75822;BMP180;64454;51.984;9.838;2023-09-19T01:20:21;99387.00;;;16.70
75822;BMP180;64454;51.984;9.838;2023-09-19T01:23:16;99386.00;;;17.10
75822;BMP180;64454;51.984;9.838;2023-09-19T01:26:11;99390.00;;;17.30
75822;BMP180;64454;51.984;9.838;2023-09-19T01:28:53;99373.00;;;17.10
75822;BMP180;64454;51.984;9.838;2023-09-19T01:31:31;99384.00;;;17.30
75822;BMP180;64454;51.984;9.838;2023-09-19T01:34:02;99382.00;;;17.20
75822;BMP180;64454;51.984;9.838;2023-09-19T01:36:32;99386.00;;;17.30
75822;BMP180;64454;51.984;9.838;2023-09-19T01:39:04;99392.00;;;17.10
75822;BMP180;64454;51.984;9.838;2023-09-19T01:41:51;99396.00;;;17.20
75822;BMP180;64454;51.984;9.838;2023-09-19T01:44:26;99398.00;;;17.30
75822;BMP180;64454;51.984;9.838;2023-09-19T01:47:01;99403.00;;;17.40
75822;BMP180;64454;51.984;9.838;2023-09-19T01:49:42;99403.00;;;17.20
75822;BMP180;64454;51.984;9.838;2023-09-19T01:52:13;99405.00;;;17.20
75822;BMP180;64454;51.984;9.838;2023-09-19T01:54:49;99404.00;;;17.00
75822;BMP180;64454;51.984;9.838;2023-09-19T01:57:27;99402.00;;;16.90
75822;BMP180;64454;51.984;9.838;2023-09-19T02:00:01;99412.00;;;16.90
75822;BMP180;64454;51.984;9.838;2023-09-19T02:02:34;99410.00;;;17.10
75822;BMP180;64454;51.984;9.838;2023-09-19T02:05:02;99406.00;;;16.80
75822;BMP180;64454;51.984;9.838;2023-09-19T02:07:30;99403.00;;;16.90
75822;BMP180;64454;51.984;9.838;2023-09-19T02:09:58;99409.00;;;16.80
75822;BMP180;64454;51.984;9.838;2023-09-19T02:12:26;99403.00;;;16.60
75822;BMP180;64454;51.984;9.838;2023-09-19T02:14:52;99403.00;;;16.80
75822;BMP180;64454;51.984;9.838;2023-09-19T02:17:19;99418.00;;;17.00
75822;BMP180;64454;51.984;9.838;2023-09-19T02:19:48;99418.00;;;16.70
75822;BMP180;64454;51.984;9.838;2023-09-19T02:22:14;99419.00;;;16.70
75822;BMP180;64454;51.984;9.838;2023-09-19T02:24:41;99426.00;;;16.70
75822;BMP180;64454;51.984;9.838;2023-09-19T02:27:09;99425.00;;;16.80
75822;BMP180;64454;51.984;9.838;2023-09-19T02:29:38;99426.00;;;16.60
75822;BMP180;64454;51.984;9.838;2023-09-19T02:32:05;99422.00;;;16.60
75822;BMP180;64454;51.984;9.838;2023-09-19T02:34:32;99423.00;;;16.80
75822;BMP180;64454;51.984;9.838;2023-09-19T02:37:03;99429.00;;;16.70
75822;BMP180;64454;51.984;9.838;2023-09-19T02:39:31;99435.00;;;16.70
75822;BMP180;64454;51.984;9.838;2023-09-19T02:41:58;99434.00;;;16.60
75822;BMP180;64454;51.984;9.838;2023-09-19T02:44:25;99441.00;;;16.90
75822;BMP180;64454;51.984;9.838;2023-09-19T02:46:53;99441.00;;;17.10
75822;BMP180;64454;51.984;9.838;2023-09-19T02:49:20;99440.00;;;17.10
75822;BMP180;64454;51.984;9.838;2023-09-19T02:51:47;99448.00;;;17.10
75822;BMP180;64454;51.984;9.838;2023-09-19T02:54:18;99452.00;;;17.10
75822;BMP180;64454;51.984;9.838;2023-09-19T02:56:47;99453.00;;;17.10
75822;BMP180;64454;51.984;9.838;2023-09-19T02:59:15;99453.00;;;17.10
75822;BMP180;64454;51.984;9.838;2023-09-19T03:01:43;99446.00;;;17.30
75822;BMP180;64454;51.984;9.838;2023-09-19T03:04:15;99451.00;;;17.00
75822;BMP180;64454;51.984;9.838;2023-09-19T03:06:45;99443.00;;;17.30
75822;BMP180;64454;51.984;9.838;2023-09-19T03:09:18;99448.00;;;17.20
75822;BMP180;64454;51.984;9.838;2023-09-19T03:11:46;99448.00;;;17.30
75822;BMP180;64454;51.984;9.838;2023-09-19T03:14:14;99446.00;;;17.40
75822;BMP180;64454;51.984;9.838;2023-09-19T03:16:42;99454.00;;;17.20
75822;BMP180;64454;51.984;9.838;2023-09-19T03:19:10;99451.00;;;17.00
75822;BMP180;64454;51.984;9.838;2023-09-19T03:21:37;99461.00;;;17.00
75822;BMP180;64454;51.984;9.838;2023-09-19T03:24:05;99463.00;;;16.90
75822;BMP180;64454;51.984;9.838;2023-09-19T03:26:34;99462.00;;;16.70
75822;BMP180;64454;51.984;9.838;2023-09-19T03:29:04;99457.00;;;16.80
75822;BMP180;64454;51.984;9.838;2023-09-19T03:31:33;99455.00;;;16.80
75822;BMP180;64454;51.984;9.838;2023-09-19T03:34:02;99454.00;;;16.70
75822;BMP180;64454;51.984;9.838;2023-09-19T03:36:30;99463.00;;;16.80
75822;BMP180;64454;51.984;9.838;2023-09-19T03:38:57;99447.00;;;16.90
75822;BMP180;64454;51.984;9.838;2023-09-19T03:41:24;99455.00;;;16.60
75822;BMP180;64454;51.984;9.838;2023-09-19T03:43:52;99468.00;;;16.50
75822;BMP180;64454;51.984;9.838;2023-09-19T03:46:19;99479.00;;;16.10
75822;BMP180;64454;51.984;9.838;2023-09-19T03:48:46;99473.00;;;16.20
75822;BMP180;64454;51.984;9.838;2023-09-19T03:51:13;99466.00;;;16.40
75822;BMP180;64454;51.984;9.838;2023-09-19T03:53:40;99478.00;;;16.30
75822;BMP180;64454;51.984;9.838;2023-09-19T03:56:07;99481.00;;;16.30
75822;BMP180;64454;51.984;9.838;2023-09-19T03:58:34;99475.00;;;16.40
75822;BMP180;64454;51.984;9.838;2023-09-19T04:01:06;99477.00;;;16.30
75822;BMP180;64454;51.984;9.838;2023-09-19T04:03:33;99492.00;;;16.50
75822;BMP180;64454;51.984;9.838;2023-09-19T04:06:11;99496.00;;;16.50
75822;BMP180;64454;51.984;9.838;2023-09-19T04:08:38;99503.00;;;16.70
75822;BMP180;64454;51.984;9.838;2023-09-19T04:11:06;99498.00;;;16.50
75822;BMP180;64454;51.984;9.838;2023-09-19T04:13:32;99493.00;;;16.40
75822;BMP180;64454;51.984;9.838;2023-09-19T04:15:59;99498.00;;;16.50
75822;BMP180;64454;51.984;9.838;2023-09-19T04:18:28;99497.00;;;16.50
75822;BMP180;64454;51.984;9.838;2023-09-19T04:20:56;99498.00;;;16.40
75822;BMP180;64454;51.984;9.838;2023-09-19T04:23:23;99490.00;;;16.40
75822;BMP180;64454;51.984;9.838;2023-09-19T04:25:50;99499.00;;;16.50
75822;BMP180;64454;51.984;9.838;2023-09-19T04:28:17;99506.00;;;16.60
75822;BMP180;64454;51.984;9.838;2023-09-19T04:30:44;99507.00;;;16.50
75822;BMP180;64454;51.984;9.838;2023-09-19T04:33:11;99508.00;;;16.40
75822;BMP180;64454;51.984;9.838;2023-09-19T04:35:41;99511.00;;;16.10
75822;BMP180;64454;51.984;9.838;2023-09-19T04:38:09;99515.00;;;16.30
75822;BMP180;64454;51.984;9.838;2023-09-19T04:40:37;99507.00;;;16.20
75822;BMP180;64454;51.984;9.838;2023-09-19T04:43:05;99519.00;;;16.40
75822;BMP180;64454;51.984;9.838;2023-09-19T04:45:33;99521.00;;;16.10
75822;BMP180;64454;51.984;9.838;2023-09-19T04:48:00;99521.00;;;16.20
75822;BMP180;64454;51.984;9.838;2023-09-19T04:50:28;99530.00;;;16.30
75822;BMP180;64454;51.984;9.838;2023-09-19T04:52:56;99522.00;;;16.30
75822;BMP180;64454;51.984;9.838;2023-09-19T04:55:23;99529.00;;;16.10
75822;BMP180;64454;51.984;9.838;2023-09-19T04:57:50;99528.00;;;16.20
75822;BMP180;64454;51.984;9.838;2023-09-19T05:00:20;99531.00;;;16.30
75822;BMP180;64454;51.984;9.838;2023-09-19T05:02:49;99526.00;;;16.50
75822;BMP180;64454;51.984;9.838;2023-09-19T05:05:17;99526.00;;;16.20
75822;BMP180;64454;51.984;9.838;2023-09-19T05:07:45;99546.00;;;16.40
75822;BMP180;64454;51.984;9.838;2023-09-19T05:10:14;99543.00;;;16.40
75822;BMP180;64454;51.984;9.838;2023-09-19T05:12:41;99543.00;;;16.20
75822;BMP180;64454;51.984;9.838;2023-09-19T05:15:11;99540.00;;;16.30
75822;BMP180;64454;51.984;9.838;2023-09-19T05:17:38;99561.00;;;16.20
75822;BMP180;64454;51.984;9.838;2023-09-19T05:20:06;99555.00;;;16.20
75822;BMP180;64454;51.984;9.838;2023-09-19T05:22:46;99555.00;;;16.10
75822;BMP180;64454;51.984;9.838;2023-09-19T05:25:15;99554.00;;;16.10
75822;BMP180;64454;51.984;9.838;2023-09-19T05:27:43;99562.00;;;16.00
75822;BMP180;64454;51.984;9.838;2023-09-19T05:30:11;99564.00;;;16.10
75822;BMP180;64454;51.984;9.838;2023-09-19T05:32:40;99572.00;;;16.10
75822;BMP180;64454;51.984;9.838;2023-09-19T05:35:07;99567.00;;;16.20
75822;BMP180;64454;51.984;9.838;2023-09-19T05:37:35;99577.00;;;16.20
75822;BMP180;64454;51.984;9.838;2023-09-19T05:40:03;99580.00;;;16.30
75822;BMP180;64454;51.984;9.838;2023-09-19T05:42:36;99587.00;;;16.10
75822;BMP180;64454;51.984;9.838;2023-09-19T05:45:06;99598.00;;;16.10
75822;BMP180;64454;51.984;9.838;2023-09-19T05:47:33;99604.00;;;16.20
75822;BMP180;64454;51.984;9.838;2023-09-19T05:50:00;99610.00;;;16.50
75822;BMP180;64454;51.984;9.838;2023-09-19T05:52:28;99618.00;;;16.30
75822;BMP180;64454;51.984;9.838;2023-09-19T05:54:55;99617.00;;;16.30
75822;BMP180;64454;51.984;9.838;2023-09-19T05:57:23;99604.00;;;16.10
75822;BMP180;64454;51.984;9.838;2023-09-19T05:59:51;99615.00;;;16.00
75822;BMP180;64454;51.984;9.838;2023-09-19T06:02:19;99612.00;;;16.20
75822;BMP180;64454;51.984;9.838;2023-09-19T06:04:45;99608.00;;;16.30
75822;BMP180;64454;51.984;9.838;2023-09-19T06:07:12;99624.00;;;16.40
75822;BMP180;64454;51.984;9.838;2023-09-19T06:09:40;99614.00;;;16.40
75822;BMP180;64454;51.984;9.838;2023-09-19T06:12:08;99623.00;;;16.40
75822;BMP180;64454;51.984;9.838;2023-09-19T06:14:35;99635.00;;;16.60
75822;BMP180;64454;51.984;9.838;2023-09-19T06:17:03;99637.00;;;16.90
75822;BMP180;64454;51.984;9.838;2023-09-19T06:19:30;99649.00;;;16.80
75822;BMP180;64454;51.984;9.838;2023-09-19T06:22:01;99639.00;;;16.70
75822;BMP180;64454;51.984;9.838;2023-09-19T06:24:28;99647.00;;;16.70
75822;BMP180;64454;51.984;9.838;2023-09-19T06:26:55;99654.00;;;16.70
75822;BMP180;64454;51.984;9.838;2023-09-19T06:29:22;99653.00;;;16.70
75822;BMP180;64454;51.984;9.838;2023-09-19T06:31:50;99656.00;;;16.60
75822;BMP180;64454;51.984;9.838;2023-09-19T06:34:20;99664.00;;;16.80
75822;BMP180;64454;51.984;9.838;2023-09-19T06:36:48;99669.00;;;16.90
75822;BMP180;64454;51.984;9.838;2023-09-19T06:39:17;99669.00;;;16.70
75822;BMP180;64454;51.984;9.838;2023-09-19T06:41:49;99662.00;;;16.30
75822;BMP180;64454;51.984;9.838;2023-09-19T06:44:18;99661.00;;;16.70
75822;BMP180;64454;51.984;9.838;2023-09-19T06:46:46;99666.00;;;16.40
75822;BMP180;64454;51.984;9.838;2023-09-19T06:49:20;99660.00;;;16.30
75822;BMP180;64454;51.984;9.838;2023-09-19T06:51:47;99667.00;;;16.30
75822;BMP180;64454;51.984;9.838;2023-09-19T06:54:17;99656.00;;;16.50
75822;BMP180;64454;51.984;9.838;2023-09-19T06:56:45;99647.00;;;16.50
75822;BMP180;64454;51.984;9.838;2023-09-19T06:59:12;99658.00;;;16.40
75822;BMP180;64454;51.984;9.838;2023-09-19T07:01:40;99647.00;;;16.50
75822;BMP180;64454;51.984;9.838;2023-09-19T07:04:10;99639.00;;;16.50
75822;BMP180;64454;51.984;9.838;2023-09-19T07:06:39;99649.00;;;16.30
75822;BMP180;64454;51.984;9.838;2023-09-19T07:09:07;99648.00;;;16.70
75822;BMP180;64454;51.984;9.838;2023-09-19T07:11:35;99647.00;;;16.90
75822;BMP180;64454;51.984;9.838;2023-09-19T07:14:03;99643.00;;;17.00
75822;BMP180;64454;51.984;9.838;2023-09-19T07:16:31;99647.00;;;16.90
75822;BMP180;64454;51.984;9.838;2023-09-19T07:18:58;99643.00;;;17.10
75822;BMP180;64454;51.984;9.838;2023-09-19T07:21:25;99643.00;;;17.10
75822;BMP180;64454;51.984;9.838;2023-09-19T07:23:53;99648.00;;;17.20
75822;BMP180;64454;51.984;9.838;2023-09-19T07:26:20;99650.00;;;17.20
75822;BMP180;64454;51.984;9.838;2023-09-19T07:28:47;99663.00;;;17.40
75822;BMP180;64454;51.984;9.838;2023-09-19T07:31:13;99660.00;;;17.60
75822;BMP180;64454;51.984;9.838;2023-09-19T07:33:41;99675.00;;;17.70
75822;BMP180;64454;51.984;9.838;2023-09-19T07:36:10;99665.00;;;17.00
75822;BMP180;64454;51.984;9.838;2023-09-19T07:38:39;99677.00;;;17.00
75822;BMP180;64454;51.984;9.838;2023-09-19T07:41:08;99678.00;;;17.40
75822;BMP180;64454;51.984;9.838;2023-09-19T07:43:35;99680.00;;;17.40
75822;BMP180;64454;51.984;9.838;2023-09-19T07:46:05;99684.00;;;17.00
75822;BMP180;64454;51.984;9.838;2023-09-19T07:48:34;99683.00;;;16.60
75822;BMP180;64454;51.984;9.838;2023-09-19T07:51:04;99688.00;;;17.00
75822;BMP180;64454;51.984;9.838;2023-09-19T07:53:32;99691.00;;;16.70
75822;BMP180;64454;51.984;9.838;2023-09-19T07:56:04;99682.00;;;17.10
75822;BMP180;64454;51.984;9.838;2023-09-19T07:58:33;99695.00;;;17.20
75822;BMP180;64454;51.984;9.838;2023-09-19T08:01:05;99693.00;;;17.00
75822;BMP180;64454;51.984;9.838;2023-09-19T08:03:32;99691.00;;;16.50
75822;BMP180;64454;51.984;9.838;2023-09-19T08:05:59;99694.00;;;16.50
75822;BMP180;64454;51.984;9.838;2023-09-19T08:08:26;99702.00;;;16.70
75822;BMP180;64454;51.984;9.838;2023-09-19T08:10:54;99708.00;;;17.30
75822;BMP180;64454;51.984;9.838;2023-09-19T08:13:22;99707.00;;;17.40
75822;BMP180;64454;51.984;9.838;2023-09-19T08:15:51;99704.00;;;17.40
75822;BMP180;64454;51.984;9.838;2023-09-19T08:18:19;99704.00;;;17.70
75822;BMP180;64454;51.984;9.838;2023-09-19T08:20:50;99707.00;;;17.80
75822;BMP180;64454;51.984;9.838;2023-09-19T08:23:17;99716.00;;;18.20
75822;BMP180;64454;51.984;9.838;2023-09-19T08:25:45;99709.00;;;17.80
75822;BMP180;64454;51.984;9.838;2023-09-19T08:28:12;99708.00;;;17.60
75822;BMP180;64454;51.984;9.838;2023-09-19T08:30:45;99703.00;;;18.40
75822;BMP180;64454;51.984;9.838;2023-09-19T08:33:13;99688.00;;;19.80
75822;BMP180;64454;51.984;9.838;2023-09-19T08:35:41;99702.00;;;20.30
75822;BMP180;64454;51.984;9.838;2023-09-19T08:38:09;99702.00;;;20.30
75822;BMP180;64454;51.984;9.838;2023-09-19T08:40:37;99722.00;;;19.90
75822;BMP180;64454;51.984;9.838;2023-09-19T08:43:06;99692.00;;;21.00
75822;BMP180;64454;51.984;9.838;2023-09-19T08:45:33;99700.00;;;20.90
75822;BMP180;64454;51.984;9.838;2023-09-19T08:48:22;99708.00;;;21.30
75822;BMP180;64454;51.984;9.838;2023-09-19T08:50:56;99696.00;;;22.10
75822;BMP180;64454;51.984;9.838;2023-09-19T08:53:31;99692.00;;;21.00
75822;BMP180;64454;51.984;9.838;2023-09-19T08:56:09;99699.00;;;20.20
75822;BMP180;64454;51.984;9.838;2023-09-19T08:58:45;99696.00;;;21.50
75822;BMP180;64454;51.984;9.838;2023-09-19T09:01:15;99694.00;;;21.50
75822;BMP180;64454;51.984;9.838;2023-09-19T09:03:46;99697.00;;;21.20
75822;BMP180;64454;51.984;9.838;2023-09-19T09:06:15;99697.00;;;21.40
75822;BMP180;64454;51.984;9.838;2023-09-19T09:08:44;99715.00;;;20.70
75822;BMP180;64454;51.984;9.838;2023-09-19T09:11:11;99712.00;;;20.60
75822;BMP180;64454;51.984;9.838;2023-09-19T09:13:39;99709.00;;;20.20
75822;BMP180;64454;51.984;9.838;2023-09-19T09:16:07;99701.00;;;20.50
75822;BMP180;64454;51.984;9.838;2023-09-19T09:18:34;99712.00;;;19.60
75822;BMP180;64454;51.984;9.838;2023-09-19T09:21:02;99725.00;;;19.20
75822;BMP180;64454;51.984;9.838;2023-09-19T09:23:32;99704.00;;;19.50
75822;BMP180;64454;51.984;9.838;2023-09-19T09:26:00;99718.00;;;20.20
75822;BMP180;64454;51.984;9.838;2023-09-19T09:28:33;99703.00;;;20.40
75822;BMP180;64454;51.984;9.838;2023-09-19T09:31:01;99713.00;;;20.90
75822;BMP180;64454;51.984;9.838;2023-09-19T09:33:33;99720.00;;;20.40
75822;BMP180;64454;51.984;9.838;2023-09-19T09:36:03;99722.00;;;19.60
75822;BMP180;64454;51.984;9.838;2023-09-19T09:38:43;99721.00;;;19.80
75822;BMP180;64454;51.984;9.838;2023-09-19T09:41:11;99715.00;;;20.80
75822;BMP180;64454;51.984;9.838;2023-09-19T09:43:42;99722.00;;;19.90
75822;BMP180;64454;51.984;9.838;2023-09-19T09:46:14;99717.00;;;19.50
75822;BMP180;64454;51.984;9.838;2023-09-19T09:49:11;99720.00;;;19.90
75822;BMP180;64454;51.984;9.838;2023-09-19T09:51:45;99710.00;;;20.20
75822;BMP180;64454;51.984;9.838;2023-09-19T09:54:17;99722.00;;;20.50
75822;BMP180;64454;51.984;9.838;2023-09-19T09:56:54;99720.00;;;20.90
75822;BMP180;64454;51.984;9.838;2023-09-19T09:59:47;99720.00;;;20.50
75822;BMP180;64454;51.984;9.838;2023-09-19T10:02:16;99719.00;;;20.50
75822;BMP180;64454;51.984;9.838;2023-09-19T10:04:50;99716.00;;;21.00
75822;BMP180;64454;51.984;9.838;2023-09-19T10:07:36;99723.00;;;21.70
75822;BMP180;64454;51.984;9.838;2023-09-19T10:10:07;99715.00;;;20.00
75822;BMP180;64454;51.984;9.838;2023-09-19T10:12:46;99706.00;;;20.00
75822;BMP180;64454;51.984;9.838;2023-09-19T10:15:16;99722.00;;;21.00
75822;BMP180;64454;51.984;9.838;2023-09-19T10:17:47;99719.00;;;22.00
75822;BMP180;64454;51.984;9.838;2023-09-19T10:20:16;99713.00;;;22.30
75822;BMP180;64454;51.984;9.838;2023-09-19T10:23:09;99721.00;;;23.70
75822;BMP180;64454;51.984;9.838;2023-09-19T10:25:40;99722.00;;;22.40
75822;BMP180;64454;51.984;9.838;2023-09-19T10:28:09;99718.00;;;22.10
75822;BMP180;64454;51.984;9.838;2023-09-19T10:30:38;99705.00;;;21.10
75822;BMP180;64454;51.984;9.838;2023-09-19T10:33:11;99710.00;;;21.40
75822;BMP180;64454;51.984;9.838;2023-09-19T10:35:41;99707.00;;;23.10
75822;BMP180;64454;51.984;9.838;2023-09-19T10:38:12;99719.00;;;22.50
75822;BMP180;64454;51.984;9.838;2023-09-19T10:40:40;99719.00;;;22.00
75822;BMP180;64454;51.984;9.838;2023-09-19T10:43:15;99717.00;;;21.50
75822;BMP180;64454;51.984;9.838;2023-09-19T10:45:45;99728.00;;;22.10
75822;BMP180;64454;51.984;9.838;2023-09-19T10:48:16;99723.00;;;21.70
75822;BMP180;64454;51.984;9.838;2023-09-19T10:50:51;99720.00;;;21.40
75822;BMP180;64454;51.984;9.838;2023-09-19T10:53:22;99713.00;;;22.20
75822;BMP180;64454;51.984;9.838;2023-09-19T10:55:55;99711.00;;;22.10
75822;BMP180;64454;51.984;9.838;2023-09-19T10:58:28;99701.00;;;23.60
75822;BMP180;64454;51.984;9.838;2023-09-19T11:00:57;99704.00;;;23.20
75822;BMP180;64454;51.984;9.838;2023-09-19T11:03:31;99739.00;;;23.10
75822;BMP180;64454;51.984;9.838;2023-09-19T11:06:12;99721.00;;;22.00
75822;BMP180;64454;51.984;9.838;2023-09-19T11:08:58;99752.00;;;21.60
75822;BMP180;64454;51.984;9.838;2023-09-19T11:11:50;99726.00;;;22.00
75822;BMP180;64454;51.984;9.838;2023-09-19T11:14:42;99713.00;;;22.80
75822;BMP180;64454;51.984;9.838;2023-09-19T11:17:31;99722.00;;;22.70
75822;BMP180;64454;51.984;9.838;2023-09-19T11:20:23;99726.00;;;21.30
75822;BMP180;64454;51.984;9.838;2023-09-19T11:23:28;99725.00;;;21.40
75822;BMP180;64454;51.984;9.838;2023-09-19T11:25:57;99728.00;;;21.40
75822;BMP180;64454;51.984;9.838;2023-09-19T11:28:32;99711.00;;;20.80
75822;BMP180;64454;51.984;9.838;2023-09-19T11:30:59;99710.00;;;21.90
75822;BMP180;64454;51.984;9.838;2023-09-19T11:33:47;99708.00;;;23.00
75822;BMP180;64454;51.984;9.838;2023-09-19T11:36:16;99699.00;;;23.50
75822;BMP180;64454;51.984;9.838;2023-09-19T11:39:00;99711.00;;;23.00
75822;BMP180;64454;51.984;9.838;2023-09-19T11:41:37;99711.00;;;22.90
75822;BMP180;64454;51.984;9.838;2023-09-19T11:44:34;99706.00;;;21.60
75822;BMP180;64454;51.984;9.838;2023-09-19T11:47:08;99702.00;;;21.60
75822;BMP180;64454;51.984;9.838;2023-09-19T11:49:41;99708.00;;;22.60
75822;BMP180;64454;51.984;9.838;2023-09-19T11:52:09;99703.00;;;21.20
75822;BMP180;64454;51.984;9.838;2023-09-19T11:54:37;99718.00;;;21.70
75822;BMP180;64454;51.984;9.838;2023-09-19T11:57:09;99706.00;;;22.10
75822;BMP180;64454;51.984;9.838;2023-09-19T11:59:39;99694.00;;;23.00
75822;BMP180;64454;51.984;9.838;2023-09-19T12:02:07;99718.00;;;22.90
75822;BMP180;64454;51.984;9.838;2023-09-19T12:04:39;99701.00;;;22.80
75822;BMP180;64454;51.984;9.838;2023-09-19T12:07:11;99696.00;;;23.00
75822;BMP180;64454;51.984;9.838;2023-09-19T12:09:41;99709.00;;;24.90
75822;BMP180;64454;51.984;9.838;2023-09-19T12:12:10;99701.00;;;24.10
75822;BMP180;64454;51.984;9.838;2023-09-19T12:14:39;99687.00;;;23.00
75822;BMP180;64454;51.984;9.838;2023-09-19T12:17:08;99696.00;;;22.50
75822;BMP180;64454;51.984;9.838;2023-09-19T12:19:35;99698.00;;;22.80
75822;BMP180;64454;51.984;9.838;2023-09-19T12:22:03;99698.00;;;21.90
75822;BMP180;64454;51.984;9.838;2023-09-19T12:24:31;99692.00;;;22.00
75822;BMP180;64454;51.984;9.838;2023-09-19T12:27:02;99694.00;;;23.40
75822;BMP180;64454;51.984;9.838;2023-09-19T12:29:32;99691.00;;;21.40
75822;BMP180;64454;51.984;9.838;2023-09-19T12:32:08;99701.00;;;21.40
75822;BMP180;64454;51.984;9.838;2023-09-19T12:34:35;99712.00;;;21.70
75822;BMP180;64454;51.984;9.838;2023-09-19T12:37:10;99705.00;;;22.30
75822;BMP180;64454;51.984;9.838;2023-09-19T12:39:39;99718.00;;;20.20
75822;BMP180;64454;51.984;9.838;2023-09-19T12:42:10;99708.00;;;19.90
75822;BMP180;64454;51.984;9.838;2023-09-19T12:44:42;99697.00;;;20.20
75822;BMP180;64454;51.984;9.838;2023-09-19T12:47:11;99697.00;;;20.30
75822;BMP180;64454;51.984;9.838;2023-09-19T12:50:09;99691.00;;;21.20
75822;BMP180;64454;51.984;9.838;2023-09-19T12:52:44;99674.00;;;21.20
75822;BMP180;64454;51.984;9.838;2023-09-19T12:55:22;99704.00;;;20.40
75822;BMP180;64454;51.984;9.838;2023-09-19T12:57:58;99706.00;;;20.60
75822;BMP180;64454;51.984;9.838;2023-09-19T13:00:36;99691.00;;;20.60
75822;BMP180;64454;51.984;9.838;2023-09-19T13:03:19;99696.00;;;20.10
75822;BMP180;64454;51.984;9.838;2023-09-19T13:05:53;99720.00;;;20.00
75822;BMP180;64454;51.984;9.838;2023-09-19T13:08:25;99708.00;;;20.00
75822;BMP180;64454;51.984;9.838;2023-09-19T13:11:10;99702.00;;;19.50
75822;BMP180;64454;51.984;9.838;2023-09-19T13:13:44;99702.00;;;19.60
75822;BMP180;64454;51.984;9.838;2023-09-19T13:16:14;99721.00;;;20.00
75822;BMP180;64454;51.984;9.838;2023-09-19T13:18:47;99708.00;;;19.40
75822;BMP180;64454;51.984;9.838;2023-09-19T13:21:27;99702.00;;;19.70
75822;BMP180;64454;51.984;9.838;2023-09-19T13:24:19;99701.00;;;19.90
75822;BMP180;64454;51.984;9.838;2023-09-19T13:26:47;99699.00;;;20.20
75822;BMP180;64454;51.984;9.838;2023-09-19T13:29:14;99696.00;;;20.10
75822;BMP180;64454;51.984;9.838;2023-09-19T13:31:46;99702.00;;;19.90
75822;BMP180;64454;51.984;9.838;2023-09-19T13:34:13;99681.00;;;19.80
75822;BMP180;64454;51.984;9.838;2023-09-19T13:36:42;99688.00;;;20.80
75822;BMP180;64454;51.984;9.838;2023-09-19T13:39:10;99695.00;;;21.00
75822;BMP180;64454;51.984;9.838;2023-09-19T13:41:38;99678.00;;;20.80
75822;BMP180;64454;51.984;9.838;2023-09-19T13:44:06;99674.00;;;20.60
75822;BMP180;64454;51.984;9.838;2023-09-19T13:46:34;99672.00;;;20.60
75822;BMP180;64454;51.984;9.838;2023-09-19T13:49:01;99663.00;;;20.70
75822;BMP180;64454;51.984;9.838;2023-09-19T13:51:30;99664.00;;;21.30
75822;BMP180;64454;51.984;9.838;2023-09-19T13:53:57;99663.00;;;22.30
75822;BMP180;64454;51.984;9.838;2023-09-19T13:56:26;99653.00;;;22.50
75822;BMP180;64454;51.984;9.838;2023-09-19T13:58:55;99649.00;;;23.10
75822;BMP180;64454;51.984;9.838;2023-09-19T14:01:22;99641.00;;;24.40
75822;BMP180;64454;51.984;9.838;2023-09-19T14:03:49;99659.00;;;23.30
75822;BMP180;64454;51.984;9.838;2023-09-19T14:06:17;99648.00;;;22.70
75822;BMP180;64454;51.984;9.838;2023-09-19T14:08:44;99642.00;;;23.20
75822;BMP180;64454;51.984;9.838;2023-09-19T14:11:13;99660.00;;;23.50
75822;BMP180;64454;51.984;9.838;2023-09-19T14:13:43;99662.00;;;22.10
75822;BMP180;64454;51.984;9.838;2023-09-19T14:16:13;99628.00;;;21.50
75822;BMP180;64454;51.984;9.838;2023-09-19T14:18:39;99661.00;;;23.00
75822;BMP180;64454;51.984;9.838;2023-09-19T14:21:07;99644.00;;;21.90
75822;BMP180;64454;51.984;9.838;2023-09-19T14:23:37;99640.00;;;21.90
75822;BMP180;64454;51.984;9.838;2023-09-19T14:26:04;99664.00;;;21.00
75822;BMP180;64454;51.984;9.838;2023-09-19T14:28:31;99653.00;;;22.00